sensor_id;sensor_type;location;lat;lon;timestamp;pressure;altitude;pressure_sealevel;temperature;humidity
52137;BME280;69622;49.570;10.986;2023-04-26T00:01:27;98329.59;;;5.85;77.80
52137;BME280;69622;49.570;10.986;2023-04-26T00:04:30;98337.66;;;5.79;79.59
52137;BME280;69622;49.570;10.986;2023-04-26T00:07:31;98334.91;;;5.97;78.75
52137;BME280;69622;49.570;10.986;2023-04-26T00:10:34;98335.19;;;5.93;78.76
52137;BME280;69622;49.570;10.986;2023-04-26T00:13:35;98343.06;;;6.06;78.17
52137;BME280;69622;49.570;10.986;2023-04-26T00:16:38;98344.25;;;6.00;78.54
52137;BME280;69622;49.570;10.986;2023-04-26T00:19:40;98340.06;;;5.97;79.07
52137;BME280;69622;49.570;10.986;2023-04-26T00:22:41;98345.09;;;6.00;78.78
52137;BME280;69622;49.570;10.986;2023-04-26T00:25:43;98336.00;;;5.93;79.42
52137;BME280;69622;49.570;10.986;2023-04-26T00:28:44;98337.34;;;5.85;79.87
52137;BME280;69622;49.570;10.986;2023-04-26T00:31:45;98329.53;;;5.70;80.97
52137;BME280;69622;49.570;10.986;2023-04-26T00:34:47;98340.41;;;5.76;80.47
52137;BME280;69622;49.570;10.986;2023-04-26T00:37:48;98339.31;;;5.80;80.26
52137;BME280;69622;49.570;10.986;2023-04-26T00:40:50;98346.59;;;5.73;80.36
52137;BME280;69622;49.570;10.986;2023-04-26T00:43:51;98339.09;;;5.68;79.63
52137;BME280;69622;49.570;10.986;2023-04-26T00:46:52;98346.06;;;5.66;80.46
52137;BME280;69622;49.570;10.986;2023-04-26T00:49:54;98349.56;;;5.65;79.42
52137;BME280;69622;49.570;10.986;2023-04-26T00:53:00;98342.53;;;5.69;79.27
52137;BME280;69622;49.570;10.986;2023-04-26T00:56:05;98346.66;;;5.71;80.37
52137;BME280;69622;49.570;10.986;2023-04-26T00:59:08;98351.75;;;5.73;80.26
52137;BME280;69622;49.570;10.986;2023-04-26T01:02:09;98356.63;;;5.78;78.83
52137;BME280;69622;49.570;10.986;2023-04-26T01:05:11;98351.41;;;5.63;79.72
52137;BME280;69622;49.570;10.986;2023-04-26T01:08:12;98351.50;;;5.62;80.65
52137;BME280;69622;49.570;10.986;2023-04-26T01:11:19;98357.41;;;5.64;80.39
52137;BME280;69622;49.570;10.986;2023-04-26T01:14:23;98357.31;;;5.65;79.47
52137;BME280;69622;49.570;10.986;2023-04-26T01:17:24;98363.00;;;5.56;79.95
52137;BME280;69622;49.570;10.986;2023-04-26T01:20:26;98365.88;;;5.34;81.47
52137;BME280;69622;49.570;10.986;2023-04-26T01:23:28;98367.97;;;5.44;80.38
52137;BME280;69622;49.570;10.986;2023-04-26T01:26:29;98355.91;;;5.44;80.57
52137;BME280;69622;49.570;10.986;2023-04-26T01:29:31;98359.06;;;5.49;80.97
52137;BME280;69622;49.570;10.986;2023-04-26T01:32:33;98360.91;;;5.47;81.71
52137;BME280;69622;49.570;10.986;2023-04-26T01:35:35;98360.41;;;5.40;80.98
52137;BME280;69622;49.570;10.986;2023-04-26T01:38:36;98359.31;;;5.45;79.53
52137;BME280;69622;49.570;10.986;2023-04-26T01:41:38;98362.38;;;5.35;79.81
52137;BME280;69622;49.570;10.986;2023-04-26T01:44:39;98359.13;;;5.32;80.51
52137;BME280;69622;49.570;10.986;2023-04-26T01:47:40;98369.28;;;5.35;80.03
52137;BME280;69622;49.570;10.986;2023-04-26T01:50:42;98367.50;;;5.20;81.66
52137;BME280;69622;49.570;10.986;2023-04-26T01:53:43;98369.25;;;5.19;81.06
52137;BME280;69622;49.570;10.986;2023-04-26T01:56:45;98373.84;;;5.14;82.08
52137;BME280;69622;49.570;10.986;2023-04-26T01:59:46;98380.66;;;5.15;82.33
52137;BME280;69622;49.570;10.986;2023-04-26T02:02:48;98379.81;;;5.15;82.51
52137;BME280;69622;49.570;10.986;2023-04-26T02:05:49;98376.78;;;5.24;81.37
52137;BME280;69622;49.570;10.986;2023-04-26T02:08:51;98386.06;;;5.10;81.74
52137;BME280;69622;49.570;10.986;2023-04-26T02:11:53;98373.25;;;5.09;82.41
52137;BME280;69622;49.570;10.986;2023-04-26T02:14:55;98372.66;;;5.04;82.44
52137;BME280;69622;49.570;10.986;2023-04-26T02:17:56;98372.97;;;4.98;82.08
52137;BME280;69622;49.570;10.986;2023-04-26T02:20:58;98369.66;;;4.96;82.94
52137;BME280;69622;49.570;10.986;2023-04-26T02:23:59;98375.66;;;4.79;82.85
52137;BME280;69622;49.570;10.986;2023-04-26T02:27:00;98381.16;;;4.89;83.10
52137;BME280;69622;49.570;10.986;2023-04-26T02:30:04;98376.00;;;4.89;82.75
52137;BME280;69622;49.570;10.986;2023-04-26T02:33:06;98371.72;;;4.89;83.46
52137;BME280;69622;49.570;10.986;2023-04-26T02:36:08;98378.00;;;4.84;84.02
52137;BME280;69622;49.570;10.986;2023-04-26T02:39:10;98375.50;;;4.82;84.08
52137;BME280;69622;49.570;10.986;2023-04-26T02:42:12;98373.09;;;4.79;84.65
52137;BME280;69622;49.570;10.986;2023-04-26T02:45:13;98373.38;;;4.73;83.93
52137;BME280;69622;49.570;10.986;2023-04-26T02:48:15;98372.81;;;4.68;84.76
52137;BME280;69622;49.570;10.986;2023-04-26T02:51:16;98369.94;;;4.57;85.62
52137;BME280;69622;49.570;10.986;2023-04-26T02:54:17;98374.56;;;4.50;86.36
52137;BME280;69622;49.570;10.986;2023-04-26T02:57:19;98375.91;;;4.40;86.49
52137;BME280;69622;49.570;10.986;2023-04-26T03:00:20;98372.75;;;4.35;86.42
52137;BME280;69622;49.570;10.986;2023-04-26T03:03:22;98372.81;;;4.33;87.01
52137;BME280;69622;49.570;10.986;2023-04-26T03:06:24;98368.28;;;4.38;86.98
52137;BME280;69622;49.570;10.986;2023-04-26T03:09:25;98377.81;;;4.36;86.93
52137;BME280;69622;49.570;10.986;2023-04-26T03:12:26;98380.97;;;4.24;87.13
52137;BME280;69622;49.570;10.986;2023-04-26T03:15:28;98378.22;;;4.29;87.14
52137;BME280;69622;49.570;10.986;2023-04-26T03:18:29;98375.91;;;4.22;87.22
52137;BME280;69622;49.570;10.986;2023-04-26T03:21:31;98377.81;;;4.19;86.76
52137;BME280;69622;49.570;10.986;2023-04-26T03:24:32;98390.50;;;4.05;87.32
52137;BME280;69622;49.570;10.986;2023-04-26T03:27:34;98392.63;;;3.97;88.17
52137;BME280;69622;49.570;10.986;2023-04-26T03:30:35;98390.88;;;3.97;88.02
52137;BME280;69622;49.570;10.986;2023-04-26T03:33:36;98388.75;;;3.88;90.17
52137;BME280;69622;49.570;10.986;2023-04-26T03:36:38;98388.94;;;4.02;88.89
52137;BME280;69622;49.570;10.986;2023-04-26T03:39:40;98397.44;;;3.85;90.51
52137;BME280;69622;49.570;10.986;2023-04-26T03:42:41;98397.44;;;3.85;90.84
52137;BME280;69622;49.570;10.986;2023-04-26T03:45:46;98394.03;;;3.85;90.96
52137;BME280;69622;49.570;10.986;2023-04-26T03:48:47;98396.94;;;3.77;91.63
52137;BME280;69622;49.570;10.986;2023-04-26T03:51:48;98400.72;;;3.70;91.86
52137;BME280;69622;49.570;10.986;2023-04-26T03:54:50;98397.09;;;3.74;91.23
52137;BME280;69622;49.570;10.986;2023-04-26T03:57:51;98403.38;;;3.69;91.28
52137;BME280;69622;49.570;10.986;2023-04-26T04:00:57;98389.94;;;3.62;91.81
52137;BME280;69622;49.570;10.986;2023-04-26T04:03:58;98395.16;;;3.60;92.90
52137;BME280;69622;49.570;10.986;2023-04-26T04:07:00;98396.00;;;3.61;92.57
52137;BME280;69622;49.570;10.986;2023-04-26T04:10:02;98415.53;;;3.65;91.58
52137;BME280;69622;49.570;10.986;2023-04-26T04:13:04;98411.72;;;3.55;93.51
52137;BME280;69622;49.570;10.986;2023-04-26T04:16:05;98416.94;;;3.53;93.62
52137;BME280;69622;49.570;10.986;2023-04-26T04:19:08;98413.09;;;3.62;92.54
52137;BME280;69622;49.570;10.986;2023-04-26T04:22:09;98411.84;;;3.52;93.15
52137;BME280;69622;49.570;10.986;2023-04-26T04:25:11;98419.13;;;3.61;92.65
52137;BME280;69622;49.570;10.986;2023-04-26T04:28:13;98417.00;;;3.52;92.93
52137;BME280;69622;49.570;10.986;2023-04-26T04:31:15;98416.84;;;3.55;92.55
52137;BME280;69622;49.570;10.986;2023-04-26T04:34:17;98426.25;;;3.56;92.41
52137;BME280;69622;49.570;10.986;2023-04-26T04:37:19;98431.44;;;3.54;92.87
52137;BME280;69622;49.570;10.986;2023-04-26T04:40:21;98434.84;;;3.55;93.50
52137;BME280;69622;49.570;10.986;2023-04-26T04:43:23;98432.69;;;3.46;94.68
52137;BME280;69622;49.570;10.986;2023-04-26T04:46:24;98429.44;;;3.42;95.07
52137;BME280;69622;49.570;10.986;2023-04-26T04:49:26;98435.69;;;3.37;95.27
52137;BME280;69622;49.570;10.986;2023-04-26T04:52:27;98437.72;;;3.49;94.47
52137;BME280;69622;49.570;10.986;2023-04-26T04:55:28;98440.91;;;3.54;94.57
52137;BME280;69622;49.570;10.986;2023-04-26T04:58:30;98436.03;;;3.48;94.60
52137;BME280;69622;49.570;10.986;2023-04-26T05:01:32;98446.59;;;3.42;95.29
52137;BME280;69622;49.570;10.986;2023-04-26T05:04:33;98439.38;;;3.50;94.73
52137;BME280;69622;49.570;10.986;2023-04-26T05:07:35;98447.63;;;3.56;95.01
52137;BME280;69622;49.570;10.986;2023-04-26T05:10:37;98444.22;;;3.56;95.03
52137;BME280;69622;49.570;10.986;2023-04-26T05:13:38;98449.16;;;3.60;94.87
52137;BME280;69622;49.570;10.986;2023-04-26T05:16:42;98451.47;;;3.67;94.62
52137;BME280;69622;49.570;10.986;2023-04-26T05:19:44;98455.97;;;3.61;96.06
52137;BME280;69622;49.570;10.986;2023-04-26T05:22:46;98459.44;;;3.60;96.04
52137;BME280;69622;49.570;10.986;2023-04-26T05:25:47;98465.50;;;3.59;96.32
52137;BME280;69622;49.570;10.986;2023-04-26T05:28:49;98460.84;;;3.68;95.80
52137;BME280;69622;49.570;10.986;2023-04-26T05:31:50;98463.56;;;3.65;96.59
52137;BME280;69622;49.570;10.986;2023-04-26T05:34:52;98463.97;;;3.74;95.78
52137;BME280;69622;49.570;10.986;2023-04-26T05:37:53;98471.50;;;3.79;95.88
52137;BME280;69622;49.570;10.986;2023-04-26T05:40:55;98468.69;;;3.83;96.06
52137;BME280;69622;49.570;10.986;2023-04-26T05:43:56;98477.09;;;3.87;95.29
52137;BME280;69622;49.570;10.986;2023-04-26T05:46:58;98486.50;;;3.88;95.53
52137;BME280;69622;49.570;10.986;2023-04-26T05:49:59;98478.56;;;3.92;94.63
52137;BME280;69622;49.570;10.986;2023-04-26T05:53:00;98485.88;;;3.83;94.17
52137;BME280;69622;49.570;10.986;2023-04-26T05:56:02;98485.50;;;3.72;95.12
52137;BME280;69622;49.570;10.986;2023-04-26T05:59:03;98488.09;;;3.72;95.98
52137;BME280;69622;49.570;10.986;2023-04-26T06:02:05;98484.97;;;3.65;96.33
52137;BME280;69622;49.570;10.986;2023-04-26T06:05:07;98487.81;;;3.78;94.99
52137;BME280;69622;49.570;10.986;2023-04-26T06:08:09;98493.16;;;3.73;94.25
52137;BME280;69622;49.570;10.986;2023-04-26T06:11:10;98492.84;;;3.81;94.09
52137;BME280;69622;49.570;10.986;2023-04-26T06:14:19;98495.41;;;3.81;94.27
52137;BME280;69622;49.570;10.986;2023-04-26T06:17:30;98493.66;;;3.81;94.05
52137;BME280;69622;49.570;10.986;2023-04-26T06:20:32;98496.00;;;3.86;93.15
52137;BME280;69622;49.570;10.986;2023-04-26T06:23:33;98497.47;;;3.91;94.45
52137;BME280;69622;49.570;10.986;2023-04-26T06:26:35;98497.88;;;4.01;94.48
52137;BME280;69622;49.570;10.986;2023-04-26T06:29:36;98494.50;;;3.82;94.05
52137;BME280;69622;49.570;10.986;2023-04-26T06:32:40;98490.50;;;3.94;92.74
52137;BME280;69622;49.570;10.986;2023-04-26T06:35:41;98493.88;;;3.96;91.39
52137;BME280;69622;49.570;10.986;2023-04-26T06:38:43;98499.91;;;3.95;91.81
52137;BME280;69622;49.570;10.986;2023-04-26T06:41:44;98497.25;;;4.15;90.54
52137;BME280;69622;49.570;10.986;2023-04-26T06:44:45;98501.66;;;4.13;91.18
52137;BME280;69622;49.570;10.986;2023-04-26T06:47:50;98502.66;;;4.09;88.64
52137;BME280;69622;49.570;10.986;2023-04-26T06:50:52;98508.59;;;4.11;86.75
52137;BME280;69622;49.570;10.986;2023-04-26T06:53:53;98503.78;;;4.22;86.32
52137;BME280;69622;49.570;10.986;2023-04-26T06:56:55;98500.09;;;4.28;85.36
52137;BME280;69622;49.570;10.986;2023-04-26T06:59:56;98497.28;;;4.32;84.72
52137;BME280;69622;49.570;10.986;2023-04-26T07:02:58;98498.72;;;4.38;84.26
52137;BME280;69622;49.570;10.986;2023-04-26T07:06:00;98502.84;;;4.42;86.63
52137;BME280;69622;49.570;10.986;2023-04-26T07:09:02;98506.94;;;4.46;82.77
52137;BME280;69622;49.570;10.986;2023-04-26T07:12:04;98508.41;;;4.69;86.05
52137;BME280;69622;49.570;10.986;2023-04-26T07:15:06;98500.91;;;4.64;81.02
52137;BME280;69622;49.570;10.986;2023-04-26T07:18:07;98500.16;;;4.79;81.77
52137;BME280;69622;49.570;10.986;2023-04-26T07:21:09;98505.69;;;4.89;83.59
52137;BME280;69622;49.570;10.986;2023-04-26T07:24:10;98497.81;;;4.92;82.29
52137;BME280;69622;49.570;10.986;2023-04-26T07:27:13;98496.75;;;4.96;79.97
52137;BME280;69622;49.570;10.986;2023-04-26T07:30:15;98500.19;;;5.30;84.21
52137;BME280;69622;49.570;10.986;2023-04-26T07:33:16;98503.13;;;5.39;84.66
52137;BME280;69622;49.570;10.986;2023-04-26T07:36:18;98501.97;;;5.45;80.03
52137;BME280;69622;49.570;10.986;2023-04-26T07:39:19;98505.81;;;5.38;75.83
52137;BME280;69622;49.570;10.986;2023-04-26T07:42:20;98505.59;;;5.58;76.83
52137;BME280;69622;49.570;10.986;2023-04-26T07:45:22;98500.84;;;5.66;83.38
52137;BME280;69622;49.570;10.986;2023-04-26T07:48:23;98501.34;;;5.57;73.45
52137;BME280;69622;49.570;10.986;2023-04-26T07:51:24;98504.59;;;5.61;71.36
52137;BME280;69622;49.570;10.986;2023-04-26T07:54:27;98511.63;;;5.75;70.08
52137;BME280;69622;49.570;10.986;2023-04-26T07:57:29;98506.06;;;5.98;72.73
52137;BME280;69622;49.570;10.986;2023-04-26T08:00:30;98510.25;;;6.00;68.57
52137;BME280;69622;49.570;10.986;2023-04-26T08:03:31;98507.44;;;6.21;70.95
52137;BME280;69622;49.570;10.986;2023-04-26T08:06:33;98508.06;;;6.40;73.11
52137;BME280;69622;49.570;10.986;2023-04-26T08:09:35;98508.66;;;6.29;67.76
52137;BME280;69622;49.570;10.986;2023-04-26T08:12:37;98508.66;;;6.14;64.55
52137;BME280;69622;49.570;10.986;2023-04-26T08:15:38;98513.81;;;6.29;66.38
52137;BME280;69622;49.570;10.986;2023-04-26T08:18:40;98521.91;;;6.23;67.13
52137;BME280;69622;49.570;10.986;2023-04-26T08:21:43;98519.16;;;6.26;66.55
52137;BME280;69622;49.570;10.986;2023-04-26T08:24:48;98520.81;;;6.27;67.90
52137;BME280;69622;49.570;10.986;2023-04-26T08:27:51;98518.16;;;6.29;67.86
52137;BME280;69622;49.570;10.986;2023-04-26T08:30:52;98518.53;;;6.69;64.65
52137;BME280;69622;49.570;10.986;2023-04-26T08:33:54;98512.44;;;6.70;64.44
52137;BME280;69622;49.570;10.986;2023-04-26T08:36:55;98514.91;;;6.87;66.57
52137;BME280;69622;49.570;10.986;2023-04-26T08:39:57;98508.72;;;6.59;63.97
52137;BME280;69622;49.570;10.986;2023-04-26T08:42:58;98512.59;;;6.82;66.22
52137;BME280;69622;49.570;10.986;2023-04-26T08:46:00;98509.88;;;6.70;63.16
52137;BME280;69622;49.570;10.986;2023-04-26T08:49:14;98506.78;;;6.93;61.47
52137;BME280;69622;49.570;10.986;2023-04-26T08:52:21;98509.63;;;7.33;64.15
52137;BME280;69622;49.570;10.986;2023-04-26T08:55:24;98507.06;;;7.61;61.54
52137;BME280;69622;49.570;10.986;2023-04-26T08:58:26;98516.09;;;7.11;57.87
52137;BME280;69622;49.570;10.986;2023-04-26T09:01:28;98507.09;;;7.03;59.28
52137;BME280;69622;49.570;10.986;2023-04-26T09:04:31;98510.75;;;6.84;61.75
52137;BME280;69622;49.570;10.986;2023-04-26T09:07:46;98512.59;;;6.82;60.52
52137;BME280;69622;49.570;10.986;2023-04-26T09:10:47;98512.84;;;7.22;62.14
52137;BME280;69622;49.570;10.986;2023-04-26T09:13:49;98513.94;;;7.04;59.38
52137;BME280;69622;49.570;10.986;2023-04-26T09:16:51;98512.91;;;7.06;60.16
52137;BME280;69622;49.570;10.986;2023-04-26T09:19:53;98514.63;;;7.36;56.76
52137;BME280;69622;49.570;10.986;2023-04-26T09:23:06;98504.09;;;7.39;60.75
52137;BME280;69622;49.570;10.986;2023-04-26T09:26:20;98505.84;;;7.53;59.25
52137;BME280;69622;49.570;10.986;2023-04-26T09:29:22;98507.13;;;8.02;55.72
52137;BME280;69622;49.570;10.986;2023-04-26T09:32:24;98502.75;;;8.03;55.32
52137;BME280;69622;49.570;10.986;2023-04-26T09:38:41;98504.66;;;7.72;52.90
52137;BME280;69622;49.570;10.986;2023-04-26T09:41:45;98497.50;;;8.04;54.99
52137;BME280;69622;49.570;10.986;2023-04-26T09:44:46;98494.38;;;7.71;52.05
52137;BME280;69622;49.570;10.986;2023-04-26T09:47:48;98493.34;;;8.02;54.07
52137;BME280;69622;49.570;10.986;2023-04-26T09:50:51;98495.75;;;8.05;54.89
52137;BME280;69622;49.570;10.986;2023-04-26T09:53:53;98487.00;;;8.34;54.82
52137;BME280;69622;49.570;10.986;2023-04-26T09:56:59;98486.94;;;8.22;53.62
52137;BME280;69622;49.570;10.986;2023-04-26T10:00:05;98484.41;;;8.20;51.93
52137;BME280;69622;49.570;10.986;2023-04-26T10:03:10;98480.09;;;8.48;53.62
52137;BME280;69622;49.570;10.986;2023-04-26T10:06:13;98491.00;;;8.11;53.72
52137;BME280;69622;49.570;10.986;2023-04-26T10:09:14;98487.66;;;7.68;53.77
52137;BME280;69622;49.570;10.986;2023-04-26T10:12:17;98486.75;;;8.10;54.26
52137;BME280;69622;49.570;10.986;2023-04-26T10:15:19;98483.91;;;8.69;55.23
52137;BME280;69622;49.570;10.986;2023-04-26T10:18:20;98480.88;;;8.62;51.56
52137;BME280;69622;49.570;10.986;2023-04-26T10:21:28;98472.16;;;9.03;51.58
52137;BME280;69622;49.570;10.986;2023-04-26T10:24:33;98474.81;;;8.89;51.70
52137;BME280;69622;49.570;10.986;2023-04-26T10:30:56;98474.84;;;9.14;51.15
52137;BME280;69622;49.570;10.986;2023-04-26T10:34:17;98475.69;;;9.02;53.21
52137;BME280;69622;49.570;10.986;2023-04-26T10:37:19;98473.38;;;8.85;50.51
52137;BME280;69622;49.570;10.986;2023-04-26T10:40:23;98476.47;;;8.50;50.46
52137;BME280;69622;49.570;10.986;2023-04-26T10:43:28;98472.63;;;8.83;49.38
52137;BME280;69622;49.570;10.986;2023-04-26T10:46:39;98472.78;;;8.54;52.45
52137;BME280;69622;49.570;10.986;2023-04-26T10:49:45;98464.84;;;8.70;51.30
52137;BME280;69622;49.570;10.986;2023-04-26T10:56:05;98469.41;;;8.79;51.41
52137;BME280;69622;49.570;10.986;2023-04-26T11:05:53;98467.16;;;8.87;49.89
52137;BME280;69622;49.570;10.986;2023-04-26T11:08:55;98466.72;;;8.81;48.30
52137;BME280;69622;49.570;10.986;2023-04-26T11:11:56;98469.84;;;8.86;50.15
52137;BME280;69622;49.570;10.986;2023-04-26T11:14:58;98467.88;;;8.89;49.42
52137;BME280;69622;49.570;10.986;2023-04-26T11:18:02;98470.38;;;9.04;51.79
52137;BME280;69622;49.570;10.986;2023-04-26T11:21:05;98471.41;;;9.14;50.00
52137;BME280;69622;49.570;10.986;2023-04-26T11:24:07;98464.56;;;9.13;48.06
52137;BME280;69622;49.570;10.986;2023-04-26T11:27:09;98448.34;;;9.60;50.87
52137;BME280;69622;49.570;10.986;2023-04-26T11:30:11;98449.00;;;9.64;49.72
52137;BME280;69622;49.570;10.986;2023-04-26T11:33:20;98449.16;;;9.60;49.64
52137;BME280;69622;49.570;10.986;2023-04-26T11:36:24;98460.31;;;9.50;51.10
52137;BME280;69622;49.570;10.986;2023-04-26T11:39:27;98447.72;;;9.56;49.55
52137;BME280;69622;49.570;10.986;2023-04-26T11:42:29;98440.16;;;9.53;50.51
52137;BME280;69622;49.570;10.986;2023-04-26T11:45:32;98442.97;;;10.00;48.96
52137;BME280;69622;49.570;10.986;2023-04-26T11:48:35;98436.84;;;9.64;47.83
52137;BME280;69622;49.570;10.986;2023-04-26T11:51:37;98443.38;;;9.57;48.44
52137;BME280;69622;49.570;10.986;2023-04-26T11:54:38;98431.75;;;9.99;49.26
52137;BME280;69622;49.570;10.986;2023-04-26T11:57:40;98435.50;;;10.19;46.69
52137;BME280;69622;49.570;10.986;2023-04-26T12:00:55;98433.72;;;10.32;45.57
52137;BME280;69622;49.570;10.986;2023-04-26T12:03:57;98432.19;;;10.17;48.29
52137;BME280;69622;49.570;10.986;2023-04-26T12:07:03;98431.94;;;9.59;47.00
52137;BME280;69622;49.570;10.986;2023-04-26T12:10:17;98442.88;;;9.52;46.14
52137;BME280;69622;49.570;10.986;2023-04-26T12:13:19;98435.81;;;9.54;47.35
52137;BME280;69622;49.570;10.986;2023-04-26T12:16:21;98440.88;;;9.68;48.83
52137;BME280;69622;49.570;10.986;2023-04-26T12:19:37;98429.88;;;10.01;47.24
52137;BME280;69622;49.570;10.986;2023-04-26T12:22:39;98427.72;;;9.95;49.22
52137;BME280;69622;49.570;10.986;2023-04-26T12:25:50;98432.06;;;10.31;47.42
52137;BME280;69622;49.570;10.986;2023-04-26T12:28:51;98429.06;;;10.25;46.92
52137;BME280;69622;49.570;10.986;2023-04-26T12:31:53;98425.97;;;10.43;46.28
52137;BME280;69622;49.570;10.986;2023-04-26T12:34:54;98424.22;;;10.55;46.93
52137;BME280;69622;49.570;10.986;2023-04-26T12:37:56;98423.09;;;10.35;46.89
52137;BME280;69622;49.570;10.986;2023-04-26T12:41:00;98418.00;;;10.69;46.42
52137;BME280;69622;49.570;10.986;2023-04-26T12:44:02;98419.31;;;10.63;45.52
52137;BME280;69622;49.570;10.986;2023-04-26T12:47:05;98419.19;;;10.30;45.58
52137;BME280;69622;49.570;10.986;2023-04-26T12:50:07;98421.56;;;10.68;46.82
52137;BME280;69622;49.570;10.986;2023-04-26T12:53:08;98419.81;;;10.79;43.22
52137;BME280;69622;49.570;10.986;2023-04-26T12:56:11;98415.09;;;10.73;46.69
52137;BME280;69622;49.570;10.986;2023-04-26T12:59:13;98413.28;;;10.63;46.37
52137;BME280;69622;49.570;10.986;2023-04-26T13:02:14;98406.56;;;10.36;43.88
52137;BME280;69622;49.570;10.986;2023-04-26T13:05:16;98409.22;;;10.47;43.16
52137;BME280;69622;49.570;10.986;2023-04-26T13:08:17;98401.63;;;10.20;44.68
52137;BME280;69622;49.570;10.986;2023-04-26T13:11:18;98409.72;;;10.64;45.34
52137;BME280;69622;49.570;10.986;2023-04-26T13:14:20;98411.25;;;11.13;42.58
52137;BME280;69622;49.570;10.986;2023-04-26T13:17:24;98406.28;;;11.09;42.80
52137;BME280;69622;49.570;10.986;2023-04-26T13:20:26;98404.84;;;11.50;45.01
52137;BME280;69622;49.570;10.986;2023-04-26T13:23:31;98400.84;;;11.68;44.72
52137;BME280;69622;49.570;10.986;2023-04-26T13:26:32;98396.84;;;12.19;44.17
52137;BME280;69622;49.570;10.986;2023-04-26T13:29:34;98399.03;;;12.35;45.80
52137;BME280;69622;49.570;10.986;2023-04-26T13:32:36;98403.13;;;12.16;42.21
52137;BME280;69622;49.570;10.986;2023-04-26T13:35:37;98404.38;;;11.90;43.08
52137;BME280;69622;49.570;10.986;2023-04-26T13:38:39;98398.88;;;12.15;43.23
52137;BME280;69622;49.570;10.986;2023-04-26T13:41:40;98400.31;;;12.29;42.96
52137;BME280;69622;49.570;10.986;2023-04-26T13:44:42;98399.75;;;12.57;41.56
52137;BME280;69622;49.570;10.986;2023-04-26T13:47:44;98399.75;;;12.25;41.56
52137;BME280;69622;49.570;10.986;2023-04-26T13:50:45;98403.78;;;11.86;41.34
52137;BME280;69622;49.570;10.986;2023-04-26T13:53:47;98392.78;;;11.72;43.12
52137;BME280;69622;49.570;10.986;2023-04-26T13:56:48;98404.50;;;12.32;41.88
52137;BME280;69622;49.570;10.986;2023-04-26T13:59:50;98412.72;;;12.69;42.47
52137;BME280;69622;49.570;10.986;2023-04-26T14:02:51;98414.25;;;12.71;41.89
52137;BME280;69622;49.570;10.986;2023-04-26T14:05:54;98410.69;;;12.72;41.49
52137;BME280;69622;49.570;10.986;2023-04-26T14:08:56;98404.28;;;12.23;42.16
52137;BME280;69622;49.570;10.986;2023-04-26T14:11:58;98408.53;;;11.70;41.60
52137;BME280;69622;49.570;10.986;2023-04-26T14:15:09;98407.81;;;11.68;42.37
52137;BME280;69622;49.570;10.986;2023-04-26T14:18:11;98401.66;;;11.69;41.85
52137;BME280;69622;49.570;10.986;2023-04-26T14:21:12;98406.16;;;11.56;40.91
52137;BME280;69622;49.570;10.986;2023-04-26T14:24:13;98398.59;;;11.53;42.58
52137;BME280;69622;49.570;10.986;2023-04-26T14:27:15;98399.88;;;11.81;44.24
52137;BME280;69622;49.570;10.986;2023-04-26T14:30:17;98399.16;;;11.67;41.50
52137;BME280;69622;49.570;10.986;2023-04-26T14:33:18;98390.75;;;11.75;42.08
52137;BME280;69622;49.570;10.986;2023-04-26T14:36:19;98397.84;;;11.73;40.16
52137;BME280;69622;49.570;10.986;2023-04-26T14:39:21;98391.09;;;11.93;42.12
52137;BME280;69622;49.570;10.986;2023-04-26T14:42:25;98398.19;;;12.02;41.64
52137;BME280;69622;49.570;10.986;2023-04-26T14:45:26;98396.00;;;11.53;39.72
52137;BME280;69622;49.570;10.986;2023-04-26T14:48:44;98393.72;;;10.92;40.18
52137;BME280;69622;49.570;10.986;2023-04-26T14:51:46;98398.13;;;11.36;42.55
52137;BME280;69622;49.570;10.986;2023-04-26T14:54:47;98388.50;;;11.93;43.02
52137;BME280;69622;49.570;10.986;2023-04-26T14:57:49;98386.50;;;11.85;41.24
52137;BME280;69622;49.570;10.986;2023-04-26T15:00:51;98381.78;;;12.43;41.49
52137;BME280;69622;49.570;10.986;2023-04-26T15:03:53;98380.06;;;12.33;40.63
52137;BME280;69622;49.570;10.986;2023-04-26T15:06:56;98380.81;;;12.23;42.59
52137;BME280;69622;49.570;10.986;2023-04-26T15:09:58;98393.56;;;12.06;42.88
52137;BME280;69622;49.570;10.986;2023-04-26T15:12:59;98391.47;;;11.88;42.58
52137;BME280;69622;49.570;10.986;2023-04-26T15:16:02;98400.25;;;11.31;42.47
52137;BME280;69622;49.570;10.986;2023-04-26T15:19:08;98387.56;;;11.72;41.33
52137;BME280;69622;49.570;10.986;2023-04-26T15:22:09;98389.84;;;11.54;41.29
52137;BME280;69622;49.570;10.986;2023-04-26T15:25:10;98391.72;;;11.63;42.59
52137;BME280;69622;49.570;10.986;2023-04-26T15:28:12;98385.69;;;11.85;41.91
52137;BME280;69622;49.570;10.986;2023-04-26T15:31:16;98387.66;;;11.92;43.61
52137;BME280;69622;49.570;10.986;2023-04-26T15:34:17;98384.78;;;12.07;43.11
52137;BME280;69622;49.570;10.986;2023-04-26T15:37:19;98388.66;;;11.58;42.34
52137;BME280;69622;49.570;10.986;2023-04-26T15:40:21;98386.75;;;11.49;44.46
52137;BME280;69622;49.570;10.986;2023-04-26T15:43:22;98387.56;;;11.60;43.45
52137;BME280;69622;49.570;10.986;2023-04-26T15:46:24;98392.19;;;11.57;42.12
52137;BME280;69622;49.570;10.986;2023-04-26T15:49:25;98391.72;;;11.63;42.85
52137;BME280;69622;49.570;10.986;2023-04-26T15:52:27;98380.47;;;11.85;41.63
52137;BME280;69622;49.570;10.986;2023-04-26T15:55:30;98381.75;;;11.79;42.47
52137;BME280;69622;49.570;10.986;2023-04-26T15:58:32;98378.34;;;11.79;41.40
52137;BME280;69622;49.570;10.986;2023-04-26T16:01:35;98374.53;;;11.72;41.48
52137;BME280;69622;49.570;10.986;2023-04-26T16:04:37;98380.91;;;12.01;41.80
52137;BME280;69622;49.570;10.986;2023-04-26T16:07:39;98379.75;;;11.72;41.45
52137;BME280;69622;49.570;10.986;2023-04-26T16:10:40;98380.19;;;11.77;42.63
52137;BME280;69622;49.570;10.986;2023-04-26T16:13:42;98375.16;;;11.42;42.22
52137;BME280;69622;49.570;10.986;2023-04-26T16:16:44;98377.16;;;11.72;43.55
52137;BME280;69622;49.570;10.986;2023-04-26T16:19:46;98375.47;;;11.93;42.68